Monkton, Vermont
Current Conditions -  °F | °C
As of 1:54 AM on Saturday 29 Nov 2014 (Local Time) from KBTV Reporting Station
Overcast Overcast  
Wind Chill: 19°   Ceiling: 3400
Heat Index: 19°   Visibility: 10mi
Dew Point: 13°   Wind: 3mph
Humidity: 77%   Direction: 70°ENE
Pressure: 30.22"   Gusts: NA
Location:  44.24°N, 73.15°W
Report Text: KBTV 290654Z AUTO 07003KT 10SM OVC034 M07/M11 A3022 RMK AO2 SLP240 T10721106
Loading
Personal Weather Stations






























Interactive Weather Map New forecast layout! Learn more

10-Day Weather Forecast

Advertisements
Track Severe Weather on mobile